createdAt,value
2022-08-28T00:00:19.191Z,99.54
2022-08-28T00:01:19.176Z,99.54
2022-08-28T00:02:19.248Z,99.54
2022-08-28T00:03:19.142Z,99.54
2022-08-28T00:04:19.157Z,99.65
2022-08-28T00:05:19.123Z,99.54
2022-08-28T00:06:19.108Z,99.54
2022-08-28T00:07:19.095Z,99.54
2022-08-28T00:08:19.078Z,99.54
2022-08-28T00:09:19.060Z,99.54
2022-08-28T00:10:19.055Z,99.59
2022-08-28T00:11:19.039Z,99.54
2022-08-28T00:12:19.027Z,99.54
2022-08-28T00:13:19.138Z,99.65
2022-08-28T00:14:18.995Z,99.44
2022-08-28T00:15:18.984Z,99.59
2022-08-28T00:16:19.074Z,99.69
2022-08-28T00:17:18.959Z,99.69
2022-08-28T00:18:18.954Z,99.54
2022-08-28T00:19:18.929Z,99.65
2022-08-28T00:20:18.915Z,99.54
2022-08-28T00:21:18.898Z,99.59
2022-08-28T00:22:18.890Z,99.69
2022-08-28T00:23:18.877Z,99.54
2022-08-28T00:24:18.870Z,99.54
2022-08-28T00:25:18.852Z,99.59
2022-08-28T00:26:18.845Z,99.65
2022-08-28T00:27:18.821Z,99.69
2022-08-28T00:28:24.011Z,99.59
2022-08-28T00:29:18.795Z,99.54
2022-08-28T00:30:18.801Z,99.54
2022-08-28T00:31:18.824Z,99.59
2022-08-28T00:32:18.752Z,99.59
2022-08-28T00:33:18.739Z,99.54
2022-08-28T00:34:18.726Z,99.65
2022-08-28T00:35:19.739Z,99.59
2022-08-28T00:36:18.703Z,99.54
2022-08-28T00:37:18.684Z,99.59
2022-08-28T00:38:18.680Z,99.59
2022-08-28T00:39:18.655Z,99.69
2022-08-28T00:40:20.046Z,99.49
2022-08-28T00:41:24.810Z,99.59
2022-08-28T00:42:19.636Z,99.59
2022-08-28T00:43:18.604Z,99.59
2022-08-28T00:44:18.595Z,99.69
2022-08-28T00:45:18.579Z,99.59
2022-08-28T00:46:18.619Z,99.59
2022-08-28T00:47:18.543Z,99.59
2022-08-28T00:48:18.539Z,99.59
2022-08-28T00:49:18.520Z,99.59
2022-08-28T00:50:18.515Z,99.59
2022-08-28T00:51:18.493Z,99.49
2022-08-28T00:52:18.478Z,99.64
2022-08-28T00:53:18.464Z,99.49
2022-08-28T00:54:18.454Z,99.54
2022-08-28T00:55:18.442Z,99.49
2022-08-28T00:56:18.435Z,99.59
2022-08-28T00:57:18.416Z,99.54
2022-08-28T00:58:18.400Z,99.59
2022-08-28T00:59:18.387Z,99.64
2022-08-28T01:00:18.372Z,99.54
2022-08-28T01:01:18.393Z,99.54
2022-08-28T01:02:18.497Z,99.64
2022-08-28T01:03:18.330Z,99.54
2022-08-28T01:04:18.315Z,99.58
2022-08-28T01:05:18.296Z,99.54
2022-08-28T01:06:18.294Z,99.48
2022-08-28T01:07:18.273Z,99.58
2022-08-28T01:08:18.656Z,99.68
2022-08-28T01:09:21.008Z,99.48
2022-08-28T01:10:18.237Z,99.58
2022-08-28T01:11:18.223Z,99.58
2022-08-28T01:12:18.213Z,99.58
2022-08-28T01:13:18.192Z,99.58
2022-08-28T01:14:18.188Z,99.58
2022-08-28T01:15:18.169Z,99.68
2022-08-28T01:16:18.230Z,99.68
2022-08-28T01:17:18.148Z,99.73
2022-08-28T01:18:18.127Z,99.58
2022-08-28T01:19:18.109Z,99.68
2022-08-28T01:20:18.101Z,99.58
2022-08-28T01:21:20.261Z,99.68
2022-08-28T01:22:18.070Z,99.73
2022-08-28T01:23:18.062Z,99.68
2022-08-28T01:24:18.040Z,99.58
2022-08-28T01:25:18.030Z,99.58
2022-08-28T01:26:18.018Z,99.68
2022-08-28T01:27:18.010Z,99.63
2022-08-28T01:28:17.988Z,99.63
2022-08-28T01:29:17.985Z,99.63
2022-08-28T01:30:17.962Z,99.63
2022-08-28T01:31:17.994Z,99.63
2022-08-28T01:32:17.936Z,99.63
2022-08-28T01:33:17.928Z,99.63
2022-08-28T01:34:17.911Z,99.58
2022-08-28T01:35:17.895Z,99.63
2022-08-28T01:36:17.886Z,99.63
2022-08-28T01:37:17.874Z,99.63
2022-08-28T01:38:21.898Z,99.63
2022-08-28T01:39:18.862Z,99.63
2022-08-28T01:40:17.941Z,99.63
2022-08-28T01:41:17.815Z,99.63
2022-08-28T01:42:17.797Z,99.63
2022-08-28T01:43:17.791Z,99.63
2022-08-28T01:44:18.129Z,99.63
2022-08-28T01:45:17.762Z,99.73
2022-08-28T01:46:17.817Z,99.63
2022-08-28T01:47:17.733Z,99.63
2022-08-28T01:48:17.718Z,99.68
2022-08-28T01:49:17.707Z,99.63
2022-08-28T01:50:17.708Z,99.53
2022-08-28T01:51:20.494Z,99.63
2022-08-28T01:52:18.695Z,99.53
2022-08-28T01:53:18.676Z,99.53
2022-08-28T01:54:17.636Z,99.63
2022-08-28T01:55:21.486Z,99.63
2022-08-28T01:56:17.608Z,99.63
2022-08-28T01:57:17.600Z,99.63
2022-08-28T01:58:17.583Z,99.63
2022-08-28T01:59:17.567Z,99.63
2022-08-28T02:00:17.553Z,99.63
2022-08-28T02:01:17.639Z,99.63
2022-08-28T02:02:17.524Z,99.63
2022-08-28T02:03:17.518Z,99.53
2022-08-28T02:04:17.535Z,99.63
2022-08-28T02:05:17.490Z,99.63
2022-08-28T02:06:17.469Z,99.73
2022-08-28T02:07:17.465Z,99.63
2022-08-28T02:08:17.447Z,99.73
2022-08-28T02:09:17.439Z,99.68
2022-08-28T02:10:17.427Z,99.63
2022-08-28T02:11:17.406Z,99.73
2022-08-28T02:12:17.398Z,99.68
2022-08-28T02:13:17.451Z,99.68
2022-08-28T02:14:17.364Z,99.58
2022-08-28T02:15:17.354Z,99.58
2022-08-28T02:16:17.381Z,99.58
2022-08-28T02:17:17.327Z,99.58
2022-08-28T02:18:17.310Z,99.58
2022-08-28T02:19:17.296Z,99.58
2022-08-28T02:20:17.285Z,99.58
2022-08-28T02:21:17.277Z,99.58
2022-08-28T02:22:17.261Z,99.58
2022-08-28T02:23:17.246Z,99.48
2022-08-28T02:24:17.234Z,99.53
2022-08-28T02:25:17.217Z,99.53
2022-08-28T02:26:17.210Z,99.63
2022-08-28T02:27:17.193Z,99.63
2022-08-28T02:28:17.179Z,99.63
2022-08-28T02:29:17.179Z,99.53
2022-08-28T02:30:17.161Z,99.58
2022-08-28T02:31:17.190Z,99.63
2022-08-28T02:32:17.126Z,99.63
2022-08-28T02:33:17.105Z,99.63
2022-08-28T02:34:17.097Z,99.53
2022-08-28T02:35:17.081Z,99.63
2022-08-28T02:36:17.071Z,99.63
2022-08-28T02:37:17.051Z,99.63
2022-08-28T02:38:17.039Z,99.58
2022-08-28T02:39:17.029Z,99.58
2022-08-28T02:40:17.100Z,99.53
2022-08-28T02:41:16.999Z,99.53
2022-08-28T02:42:16.993Z,99.63
2022-08-28T02:43:16.981Z,99.63
2022-08-28T02:44:16.964Z,99.53
2022-08-28T02:45:16.945Z,99.63
2022-08-28T02:46:16.958Z,99.63
2022-08-28T02:47:16.927Z,99.53
2022-08-28T02:48:17.565Z,99.48
2022-08-28T02:49:16.897Z,99.53
2022-08-28T02:50:16.882Z,99.63
2022-08-28T02:51:16.872Z,99.63
2022-08-28T02:52:16.858Z,99.53
2022-08-28T02:53:16.839Z,99.63
2022-08-28T02:54:16.827Z,99.58
2022-08-28T02:55:16.813Z,99.63
2022-08-28T02:56:16.807Z,99.53
2022-08-28T02:57:16.790Z,99.53
2022-08-28T02:58:16.783Z,99.53
2022-08-28T02:59:16.764Z,99.63
2022-08-28T03:00:17.165Z,99.53
2022-08-28T03:01:16.796Z,99.53
2022-08-28T03:02:16.830Z,99.53
2022-08-28T03:03:16.708Z,99.53
2022-08-28T03:04:16.695Z,99.48
2022-08-28T03:05:16.678Z,99.43
2022-08-28T03:06:16.671Z,99.53
2022-08-28T03:07:16.646Z,99.53
2022-08-28T03:08:16.639Z,99.53
2022-08-28T03:09:16.620Z,99.53
2022-08-28T03:10:16.613Z,99.53
2022-08-28T03:11:16.591Z,99.53
2022-08-28T03:12:16.582Z,99.43
2022-08-28T03:13:26.503Z,99.53
2022-08-28T03:14:17.587Z,99.53
2022-08-28T03:15:16.548Z,99.53
2022-08-28T03:16:16.561Z,99.53
2022-08-28T03:17:16.517Z,99.53
2022-08-28T03:18:16.781Z,99.53
2022-08-28T03:19:16.490Z,99.53
2022-08-28T03:20:16.482Z,99.53
2022-08-28T03:21:16.459Z,99.43
2022-08-28T03:22:16.447Z,99.63
2022-08-28T03:23:16.433Z,99.53
2022-08-28T03:24:16.430Z,99.53
2022-08-28T03:25:16.410Z,99.53
2022-08-28T03:26:16.399Z,99.53
2022-08-28T03:27:16.379Z,99.53
2022-08-28T03:28:16.370Z,99.53
2022-08-28T03:29:16.354Z,99.63
2022-08-28T03:30:16.340Z,99.53
2022-08-28T03:31:16.372Z,99.53
2022-08-28T03:32:16.314Z,99.53
2022-08-28T03:33:16.300Z,99.53
2022-08-28T03:34:16.285Z,99.48
2022-08-28T03:35:16.277Z,99.53
2022-08-28T03:36:16.269Z,99.48
2022-08-28T03:37:16.249Z,99.38
2022-08-28T03:38:16.237Z,99.48
2022-08-28T03:39:16.224Z,99.48
2022-08-28T03:40:16.285Z,99.48
2022-08-28T03:41:16.196Z,99.48
2022-08-28T03:42:16.180Z,99.48
2022-08-28T03:43:16.165Z,99.38
2022-08-28T03:44:16.156Z,99.53
2022-08-28T03:45:16.135Z,99.38
2022-08-28T03:46:16.246Z,99.48
2022-08-28T03:47:16.112Z,99.43
2022-08-28T03:48:16.095Z,99.38
2022-08-28T03:49:16.095Z,99.38
2022-08-28T03:50:16.070Z,99.43
2022-08-28T03:51:16.064Z,99.43
2022-08-28T03:52:16.047Z,99.43
2022-08-28T03:53:16.032Z,99.43
2022-08-28T03:54:16.024Z,99.38
2022-08-28T03:55:16.002Z,99.48
2022-08-28T03:56:15.995Z,99.43
2022-08-28T03:57:15.972Z,99.38
2022-08-28T03:58:19.055Z,99.43
2022-08-28T03:59:15.949Z,99.43
2022-08-28T04:00:15.944Z,99.43
2022-08-28T04:01:16.031Z,99.38
2022-08-28T04:02:15.918Z,99.43
2022-08-28T04:03:16.013Z,99.43
2022-08-28T04:04:15.889Z,99.38
2022-08-28T04:05:15.874Z,99.38
2022-08-28T04:06:15.861Z,99.38
2022-08-28T04:07:15.844Z,99.38
2022-08-28T04:08:15.836Z,99.38
2022-08-28T04:09:15.814Z,99.38
2022-08-28T04:10:15.812Z,99.38
2022-08-28T04:11:15.787Z,99.38
2022-08-28T04:12:15.778Z,99.38
2022-08-28T04:13:15.757Z,99.38
2022-08-28T04:14:15.751Z,99.38
2022-08-28T04:15:15.738Z,99.38
2022-08-28T04:16:15.750Z,99.28
2022-08-28T04:17:15.714Z,99.38
2022-08-28T04:18:15.699Z,99.28
2022-08-28T04:19:15.680Z,99.38
2022-08-28T04:20:15.675Z,99.38
2022-08-28T04:21:15.654Z,99.38
2022-08-28T04:22:15.646Z,99.38
2022-08-28T04:23:15.622Z,99.28
2022-08-28T04:24:15.615Z,99.38
2022-08-28T04:25:15.601Z,99.28
2022-08-28T04:26:15.593Z,99.28
2022-08-28T04:27:15.576Z,99.28
2022-08-28T04:28:15.567Z,99.18
2022-08-28T04:29:15.547Z,99.18
2022-08-28T04:30:15.541Z,99.33
2022-08-28T04:31:15.599Z,99.22
2022-08-28T04:32:15.608Z,99.22
2022-08-28T04:33:15.490Z,99.22
2022-08-28T04:34:15.480Z,99.22
2022-08-28T04:35:15.465Z,99.33
2022-08-28T04:36:15.455Z,99.33
2022-08-28T04:37:15.442Z,99.33
2022-08-28T04:38:15.696Z,99.33
2022-08-28T04:39:15.416Z,99.28
2022-08-28T04:40:15.486Z,99.22
2022-08-28T04:41:15.386Z,99.22
2022-08-28T04:42:15.383Z,99.33
2022-08-28T04:43:15.358Z,99.33
2022-08-28T04:44:15.348Z,99.22
2022-08-28T04:45:15.337Z,99.22
2022-08-28T04:46:15.355Z,99.22
2022-08-28T04:47:15.304Z,99.33
2022-08-28T04:48:15.670Z,99.27
2022-08-28T04:49:15.273Z,99.27
2022-08-28T04:50:15.266Z,99.22
2022-08-28T04:51:15.247Z,99.27
2022-08-28T04:52:15.236Z,99.22
2022-08-28T04:53:15.227Z,99.22
2022-08-28T04:54:15.212Z,99.22
2022-08-28T04:55:15.198Z,99.22
2022-08-28T04:56:15.188Z,99.22
2022-08-28T04:57:15.170Z,99.22
2022-08-28T04:58:15.160Z,99.22
2022-08-28T04:59:15.141Z,99.27
2022-08-28T05:00:15.137Z,99.22
2022-08-28T05:01:15.274Z,99.22
2022-08-28T05:02:15.199Z,99.22
2022-08-28T05:03:15.094Z,99.22
2022-08-28T05:04:15.087Z,99.22
2022-08-28T05:05:15.067Z,99.22
2022-08-28T05:06:15.055Z,99.22
2022-08-28T05:07:15.037Z,99.22
2022-08-28T05:08:15.243Z,99.22
2022-08-28T05:09:15.012Z,99.22
2022-08-28T05:10:15.002Z,99.22
2022-08-28T05:11:30.738Z,99.22
2022-08-28T05:12:15.990Z,99.22
2022-08-28T05:13:14.957Z,99.13
2022-08-28T05:14:16.281Z,99.22
2022-08-28T05:15:14.925Z,99.22
2022-08-28T05:16:15.011Z,99.18
2022-08-28T05:17:14.904Z,99.13
2022-08-28T05:18:14.891Z,99.18
2022-08-28T05:19:14.877Z,99.08
2022-08-28T05:20:14.866Z,99.18
2022-08-28T05:21:14.850Z,99.18
2022-08-28T05:22:14.842Z,99.08
2022-08-28T05:23:14.826Z,99.08
2022-08-28T05:24:14.814Z,99.08
2022-08-28T05:25:14.793Z,99.08
2022-08-28T05:26:14.786Z,99.18
2022-08-28T05:27:14.767Z,99.13
2022-08-28T05:28:14.944Z,99.08
2022-08-28T05:29:14.747Z,99.04
2022-08-28T05:30:14.727Z,99.04
2022-08-28T05:31:14.733Z,99.04
2022-08-28T05:32:14.692Z,99.04
2022-08-28T05:33:14.684Z,99.04
2022-08-28T05:34:14.670Z,99.04
2022-08-28T05:35:14.665Z,98.93
2022-08-28T05:36:14.643Z,98.88
2022-08-28T05:37:19.438Z,98.93
2022-08-28T05:38:15.013Z,98.93
2022-08-28T05:39:14.605Z,98.88
2022-08-28T05:40:14.616Z,98.79
2022-08-28T05:41:14.581Z,98.88
2022-08-28T05:42:14.562Z,98.68
2022-08-28T05:43:14.553Z,98.68
2022-08-28T05:44:14.533Z,98.79
2022-08-28T05:45:14.526Z,98.68
2022-08-28T05:46:14.575Z,98.79
2022-08-28T05:47:14.496Z,98.68
2022-08-28T05:48:14.637Z,98.79
2022-08-28T05:49:14.465Z,98.68
2022-08-28T05:50:14.451Z,98.68
2022-08-28T05:51:14.446Z,98.64
2022-08-28T05:52:14.430Z,98.64
2022-08-28T05:53:14.417Z,98.64
2022-08-28T05:54:14.398Z,98.54
2022-08-28T05:55:14.392Z,98.54
2022-08-28T05:56:14.380Z,98.44
2022-08-28T05:57:14.361Z,98.33
2022-08-28T05:58:14.480Z,98.29
2022-08-28T05:59:14.333Z,98.29
2022-08-28T06:00:14.317Z,98.29
2022-08-28T06:01:14.316Z,98.29
2022-08-28T06:02:14.343Z,98.29
2022-08-28T06:03:14.281Z,98.19
2022-08-28T06:04:14.335Z,98.19
2022-08-28T06:05:14.256Z,98.19
2022-08-28T06:06:14.240Z,98.13
2022-08-28T06:07:14.223Z,98.13
2022-08-28T06:08:14.476Z,98.03
2022-08-28T06:09:14.199Z,98.13
2022-08-28T06:10:14.182Z,97.99
2022-08-28T06:11:14.173Z,97.99
2022-08-28T06:12:14.152Z,98.13
2022-08-28T06:13:14.141Z,98.13
2022-08-28T06:14:14.127Z,97.99
2022-08-28T06:15:14.121Z,97.99
2022-08-28T06:16:14.168Z,97.89
2022-08-28T06:17:14.094Z,97.99
2022-08-28T06:18:14.414Z,97.89
2022-08-28T06:19:14.066Z,97.89
2022-08-28T06:20:14.052Z,97.89
2022-08-28T06:21:14.037Z,97.69
2022-08-28T06:22:14.022Z,97.89
2022-08-28T06:23:14.007Z,97.89
2022-08-28T06:24:13.991Z,97.78
2022-08-28T06:25:13.983Z,97.78
2022-08-28T06:26:13.963Z,97.78
2022-08-28T06:27:13.957Z,97.78
2022-08-28T06:28:14.143Z,97.78
2022-08-28T06:29:13.940Z,97.78
2022-08-28T06:30:13.911Z,97.74
2022-08-28T06:31:24.324Z,97.64
2022-08-28T06:32:14.999Z,97.74
2022-08-28T06:33:13.883Z,97.64
2022-08-28T06:34:13.863Z,97.64
2022-08-28T06:35:13.844Z,97.53
2022-08-28T06:36:13.830Z,97.64
2022-08-28T06:37:13.823Z,97.64
2022-08-28T06:38:13.897Z,97.53
2022-08-28T06:39:13.801Z,97.64
2022-08-28T06:40:13.823Z,97.44
2022-08-28T06:41:13.773Z,97.53
2022-08-28T06:42:13.756Z,97.44
2022-08-28T06:43:13.744Z,97.44
2022-08-28T06:44:13.732Z,97.44
2022-08-28T06:45:13.720Z,97.44
2022-08-28T06:46:13.789Z,97.39
2022-08-28T06:47:13.690Z,97.39
2022-08-28T06:48:13.804Z,97.44
2022-08-28T06:49:13.664Z,97.39
2022-08-28T06:50:13.641Z,97.49
2022-08-28T06:51:13.630Z,97.39
2022-08-28T06:52:13.617Z,97.33
2022-08-28T06:53:13.604Z,97.29
2022-08-28T06:54:14.830Z,97.33
2022-08-28T06:55:13.583Z,97.24
2022-08-28T06:56:13.739Z,97.33
2022-08-28T06:57:14.574Z,97.19
2022-08-28T06:58:13.704Z,97.29
2022-08-28T06:59:13.531Z,97.19
2022-08-28T07:00:13.513Z,97.29
2022-08-28T07:01:14.091Z,97.19
2022-08-28T07:02:13.631Z,97.19
2022-08-28T07:03:13.470Z,97.19
2022-08-28T07:04:13.452Z,97.19
2022-08-28T07:05:13.442Z,97.19
2022-08-28T07:06:13.426Z,97.09
2022-08-28T07:07:31.298Z,97.04
2022-08-28T07:08:14.620Z,97.19
2022-08-28T07:09:13.396Z,97.19
2022-08-28T07:10:13.384Z,97.04
2022-08-28T07:11:13.359Z,97.09
2022-08-28T07:12:13.343Z,97.09
2022-08-28T07:13:13.334Z,97.04
2022-08-28T07:14:13.323Z,97.04
2022-08-28T07:15:13.306Z,97.04
2022-08-28T07:16:13.368Z,97.04
2022-08-28T07:17:13.283Z,96.94
2022-08-28T07:18:13.527Z,97.04
2022-08-28T07:19:13.259Z,96.94
2022-08-28T07:20:13.242Z,96.89
2022-08-28T07:21:13.230Z,96.89
2022-08-28T07:22:13.213Z,96.94
2022-08-28T07:23:13.206Z,96.94
2022-08-28T07:24:13.185Z,96.69
2022-08-28T07:25:13.177Z,96.89
2022-08-28T07:26:13.158Z,96.80
2022-08-28T07:27:18.315Z,96.80
2022-08-28T07:28:13.304Z,96.85
2022-08-28T07:29:13.127Z,96.80
2022-08-28T07:30:13.100Z,96.69
2022-08-28T07:31:13.150Z,96.69
2022-08-28T07:32:13.078Z,96.75
2022-08-28T07:33:13.204Z,96.80
2022-08-28T07:34:13.051Z,96.59
2022-08-28T07:35:13.046Z,96.75
2022-08-28T07:36:15.914Z,96.69
2022-08-28T07:37:15.406Z,96.69
2022-08-28T07:38:13.121Z,96.69
2022-08-28T07:39:12.990Z,96.89
2022-08-28T07:40:13.050Z,96.75
2022-08-28T07:41:12.963Z,96.69
2022-08-28T07:42:12.944Z,96.65
2022-08-28T07:43:12.940Z,96.65
2022-08-28T07:44:12.917Z,96.65
2022-08-28T07:45:12.907Z,96.65
2022-08-28T07:46:13.008Z,96.55
2022-08-28T07:47:12.884Z,96.65
2022-08-28T07:48:13.359Z,96.55
2022-08-28T07:49:12.858Z,96.55
2022-08-28T07:50:12.832Z,96.69
2022-08-28T07:51:12.832Z,96.85
2022-08-28T07:52:12.816Z,96.69
2022-08-28T07:53:12.805Z,96.80
2022-08-28T07:54:17.670Z,96.80
2022-08-28T07:55:12.771Z,96.69
2022-08-28T07:56:12.758Z,96.80
2022-08-28T07:57:12.746Z,96.59
2022-08-28T07:58:12.993Z,96.65
2022-08-28T07:59:13.973Z,96.59
2022-08-28T08:00:12.700Z,96.59
2022-08-28T08:01:12.759Z,96.45
2022-08-28T08:02:12.677Z,96.50
2022-08-28T08:03:12.703Z,96.70
2022-08-28T08:04:12.852Z,96.56
2022-08-28T08:05:12.638Z,96.76
2022-08-28T08:06:12.619Z,97.06
2022-08-28T08:07:12.612Z,96.96
2022-08-28T08:08:12.828Z,96.86
2022-08-28T08:09:12.586Z,97.02
2022-08-28T08:10:12.568Z,97.72
2022-08-28T08:11:16.530Z,97.41
2022-08-28T08:12:12.552Z,97.72
2022-08-28T08:13:12.534Z,97.21
2022-08-28T08:14:12.512Z,97.57
2022-08-28T08:15:12.515Z,97.47
2022-08-28T08:16:12.602Z,97.82
2022-08-28T08:17:12.484Z,97.47
2022-08-28T08:18:12.659Z,97.17
2022-08-28T08:19:12.454Z,97.67
2022-08-28T08:20:12.436Z,97.78
2022-08-28T08:21:12.425Z,97.47
2022-08-28T08:22:12.409Z,97.17
2022-08-28T08:23:12.402Z,97.17
2022-08-28T08:24:12.382Z,97.17
2022-08-28T08:25:13.394Z,97.58
2022-08-28T08:26:12.351Z,97.88
2022-08-28T08:27:12.345Z,96.88
2022-08-28T08:28:12.338Z,97.43
2022-08-28T08:29:12.315Z,97.13
2022-08-28T08:30:12.298Z,97.19
2022-08-28T08:31:12.356Z,96.60
2022-08-28T08:32:12.285Z,94.31
2022-08-28T08:33:12.267Z,95.95
2022-08-28T08:34:12.248Z,96.60
2022-08-28T08:35:12.238Z,95.70
2022-08-28T08:36:12.221Z,96.70
2022-08-28T08:37:12.212Z,96.04
2022-08-28T08:38:12.208Z,96.14
2022-08-28T08:39:12.180Z,96.34
2022-08-28T08:40:12.226Z,96.14
2022-08-28T08:41:12.159Z,95.69
2022-08-28T08:42:12.138Z,95.39
2022-08-28T08:43:12.127Z,95.89
2022-08-28T08:44:12.114Z,96.69
2022-08-28T08:45:12.105Z,95.69
2022-08-28T08:46:12.254Z,96.59
2022-08-28T08:47:14.851Z,95.84
2022-08-28T08:48:12.235Z,95.64
2022-08-28T08:49:12.050Z,95.75
2022-08-28T08:50:12.035Z,96.14
2022-08-28T08:51:12.026Z,95.80
2022-08-28T08:52:12.006Z,95.65
2022-08-28T08:53:12.001Z,94.45
2022-08-28T08:54:11.987Z,94.50
2022-08-28T08:55:11.969Z,95.86
2022-08-28T08:56:11.958Z,95.10
2022-08-28T08:57:11.951Z,95.55
2022-08-28T08:58:12.000Z,94.76
2022-08-28T08:59:11.925Z,94.65
2022-08-28T09:00:15.820Z,94.85
2022-08-28T09:01:11.947Z,93.55
2022-08-28T09:02:11.878Z,95.16
2022-08-28T09:03:11.911Z,93.88
2022-08-28T09:04:15.641Z,90.29
2022-08-28T09:05:11.841Z,90.63
2022-08-28T09:06:11.824Z,92.33
2022-08-28T09:07:11.808Z,93.32
2022-08-28T09:08:11.823Z,93.37
2022-08-28T09:09:11.789Z,90.62
2022-08-28T09:10:11.777Z,91.91
2022-08-28T09:11:11.762Z,94.51
2022-08-28T09:12:11.744Z,93.87
2022-08-28T09:13:11.733Z,93.57
2022-08-28T09:14:11.721Z,88.61
2022-08-28T09:15:11.710Z,89.04
2022-08-28T09:16:11.753Z,85.49
2022-08-28T09:17:11.685Z,80.16
2022-08-28T09:18:11.844Z,74.67
2022-08-28T09:19:11.654Z,73.38
2022-08-28T09:20:11.635Z,80.37
2022-08-28T09:21:11.626Z,79.16
2022-08-28T09:22:11.612Z,83.17
2022-08-28T09:23:13.075Z,84.34
2022-08-28T09:24:11.894Z,85.72
2022-08-28T09:25:11.580Z,88.85
2022-08-28T09:26:12.572Z,90.64
2022-08-28T09:27:14.373Z,91.58
2022-08-28T09:28:11.636Z,82.46
2022-08-28T09:29:11.530Z,80.35
2022-08-28T09:30:11.511Z,83.19
2022-08-28T09:31:11.556Z,83.84
2022-08-28T09:32:11.488Z,77.44
2022-08-28T09:33:11.484Z,81.24
2022-08-28T09:34:11.457Z,77.70
2022-08-28T09:35:11.442Z,77.75
2022-08-28T09:36:11.439Z,83.35
2022-08-28T09:37:14.032Z,80.77
2022-08-28T09:38:11.696Z,82.62
2022-08-28T09:39:11.393Z,82.06
2022-08-28T09:40:11.418Z,81.80
2022-08-28T09:41:11.367Z,81.90
2022-08-28T09:42:11.355Z,84.29
2022-08-28T09:43:11.350Z,83.23
2022-08-28T09:44:11.332Z,84.83
2022-08-28T09:45:11.316Z,82.97
2022-08-28T09:46:11.402Z,86.37
2022-08-28T09:47:11.283Z,76.63
2022-08-28T09:48:11.272Z,77.05
2022-08-28T09:49:11.270Z,74.61
2022-08-28T09:50:11.255Z,75.80
2022-08-28T09:51:11.240Z,80.60
2022-08-28T09:52:11.229Z,72.58
2022-08-28T09:53:11.213Z,70.21
2022-08-28T09:54:11.200Z,66.07
2022-08-28T09:55:11.182Z,65.87
2022-08-28T09:56:11.170Z,63.41
2022-08-28T09:57:11.156Z,65.87
2022-08-28T09:58:11.153Z,67.44
2022-08-28T09:59:11.132Z,68.76
2022-08-28T10:00:11.122Z,70.21
2022-08-28T10:01:11.201Z,75.20
2022-08-28T10:02:11.140Z,72.20
2022-08-28T10:03:11.083Z,70.78
2022-08-28T10:04:11.116Z,72.78
2022-08-28T10:05:11.056Z,70.31
2022-08-28T10:06:11.044Z,66.19
2022-08-28T10:07:11.031Z,70.77
2022-08-28T10:08:11.024Z,66.75
2022-08-28T10:09:11.011Z,67.38
2022-08-28T10:10:10.997Z,66.95
2022-08-28T10:11:10.979Z,65.93
2022-08-28T10:12:10.972Z,64.09
2022-08-28T10:13:10.956Z,64.52
2022-08-28T10:14:10.949Z,65.17
2022-08-28T10:15:10.928Z,66.33
2022-08-28T10:16:10.960Z,69.65
2022-08-28T10:17:10.903Z,70.68
2022-08-28T10:18:10.895Z,70.94
2022-08-28T10:19:10.886Z,70.98
2022-08-28T10:20:10.874Z,70.81
2022-08-28T10:21:10.857Z,70.55
2022-08-28T10:22:10.849Z,75.81
2022-08-28T10:23:14.442Z,74.52
2022-08-28T10:24:11.833Z,72.67
2022-08-28T10:25:10.800Z,74.46
2022-08-28T10:26:10.795Z,73.66
2022-08-28T10:27:10.775Z,72.97
2022-08-28T10:28:10.767Z,72.47
2022-08-28T10:29:10.750Z,73.23
2022-08-28T10:30:13.402Z,72.00
2022-08-28T10:31:10.800Z,70.91
2022-08-28T10:32:10.720Z,74.05
2022-08-28T10:33:10.702Z,70.78
2022-08-28T10:34:10.693Z,70.58
2022-08-28T10:35:10.676Z,70.51
2022-08-28T10:36:32.923Z,70.25
2022-08-28T10:37:11.675Z,72.07
2022-08-28T10:38:10.644Z,71.97
2022-08-28T10:39:10.620Z,72.41
2022-08-28T10:40:10.651Z,75.55
2022-08-28T10:41:10.599Z,73.07
2022-08-28T10:42:10.585Z,73.69
2022-08-28T10:43:10.568Z,74.26
2022-08-28T10:44:10.565Z,73.43
2022-08-28T10:45:10.552Z,70.85
2022-08-28T10:46:10.563Z,69.53
2022-08-28T10:47:10.525Z,72.27
2022-08-28T10:48:10.516Z,71.51
2022-08-28T10:49:10.499Z,69.32
2022-08-28T10:50:10.488Z,70.29
2022-08-28T10:51:10.474Z,71.15
2022-08-28T10:52:10.467Z,72.58
2022-08-28T10:53:10.448Z,73.60
2022-08-28T10:54:10.434Z,74.33
2022-08-28T10:55:10.423Z,76.76
2022-08-28T10:56:10.415Z,76.56
2022-08-28T10:57:10.397Z,76.76
2022-08-28T10:58:24.478Z,77.50
2022-08-28T10:59:11.397Z,76.00
2022-08-28T11:00:10.366Z,78.19
2022-08-28T11:01:10.365Z,76.40
2022-08-28T11:02:10.355Z,78.09
2022-08-28T11:03:27.015Z,75.87
2022-08-28T11:04:11.329Z,77.92
2022-08-28T11:05:10.295Z,75.65
2022-08-28T11:06:10.283Z,73.86
2022-08-28T11:07:10.263Z,73.57
2022-08-28T11:08:10.251Z,75.16
2022-08-28T11:09:10.239Z,75.65
2022-08-28T11:10:10.232Z,76.29
2022-08-28T11:11:10.211Z,75.99
2022-08-28T11:12:10.201Z,75.20
2022-08-28T11:13:10.305Z,75.59
2022-08-28T11:14:10.185Z,75.89
2022-08-28T11:15:10.167Z,75.69
2022-08-28T11:16:10.152Z,77.15
2022-08-28T11:17:10.250Z,74.26
2022-08-28T11:18:10.121Z,76.06
2022-08-28T11:19:10.110Z,75.36
2022-08-28T11:20:10.109Z,72.00
2022-08-28T11:21:10.090Z,68.99
2022-08-28T11:22:10.075Z,69.26
2022-08-28T11:23:10.053Z,67.18
2022-08-28T11:24:10.043Z,69.29
2022-08-28T11:25:10.030Z,70.51
2022-08-28T11:26:10.030Z,69.85
2022-08-28T11:27:10.007Z,70.32
2022-08-28T11:28:09.999Z,67.38
2022-08-28T11:29:09.982Z,68.01
2022-08-28T11:30:09.973Z,67.87
2022-08-28T11:31:10.021Z,68.37
2022-08-28T11:32:10.970Z,67.01
2022-08-28T11:33:10.050Z,67.64
2022-08-28T11:34:09.915Z,69.20
2022-08-28T11:35:09.903Z,69.69
2022-08-28T11:36:09.894Z,69.82
2022-08-28T11:37:09.880Z,69.46
2022-08-28T11:38:09.865Z,71.08
2022-08-28T11:39:09.846Z,72.21
2022-08-28T11:40:09.868Z,72.64
2022-08-28T11:41:09.821Z,74.13
2022-08-28T11:42:09.812Z,73.34
2022-08-28T11:43:09.803Z,73.84
2022-08-28T11:44:09.789Z,73.44
2022-08-28T11:45:09.773Z,74.33
2022-08-28T11:46:09.850Z,74.24
2022-08-28T11:47:09.748Z,73.18
2022-08-28T11:48:09.735Z,73.87
2022-08-28T11:49:09.718Z,74.54
2022-08-28T11:50:09.717Z,73.47
2022-08-28T11:51:09.694Z,72.94
2022-08-28T11:52:09.681Z,74.60
2022-08-28T11:53:09.720Z,74.00
2022-08-28T11:54:09.658Z,73.54
2022-08-28T11:55:09.637Z,73.24
2022-08-28T11:56:09.625Z,70.35
2022-08-28T11:57:09.609Z,67.38
2022-08-28T11:58:33.186Z,69.23
2022-08-28T11:59:34.907Z,68.50
2022-08-28T12:00:33.158Z,66.16
2022-08-28T12:01:33.134Z,66.91
2022-08-28T12:02:33.179Z,64.51
2022-08-28T12:03:33.118Z,65.59
2022-08-28T12:04:33.143Z,63.18
2022-08-28T12:05:33.096Z,66.61
2022-08-28T12:06:33.081Z,66.65
2022-08-28T12:07:33.063Z,68.66
2022-08-28T12:08:33.052Z,69.09
2022-08-28T12:09:33.040Z,69.89
2022-08-28T12:10:33.029Z,70.18
2022-08-28T12:11:33.008Z,69.99
2022-08-28T12:12:32.999Z,68.30
2022-08-28T12:13:32.982Z,69.92
2022-08-28T12:14:32.978Z,64.51
2022-08-28T12:15:32.953Z,62.41
2022-08-28T12:16:32.950Z,62.32
2022-08-28T12:17:32.934Z,57.53
2022-08-28T12:18:32.921Z,58.83
2022-08-28T12:19:32.905Z,56.31
2022-08-28T12:20:32.897Z,55.76
2022-08-28T12:21:32.880Z,54.75
2022-08-28T12:22:32.870Z,55.19
2022-08-28T12:23:32.854Z,55.26
2022-08-28T12:24:32.847Z,51.90
2022-08-28T12:25:32.834Z,51.71
2022-08-28T12:26:32.819Z,52.50
2022-08-28T12:27:32.808Z,52.99
2022-08-28T12:28:32.799Z,54.19
2022-08-28T12:29:32.780Z,53.77
2022-08-28T12:30:32.827Z,53.91
2022-08-28T12:31:32.761Z,56.35
2022-08-28T12:32:32.747Z,57.17
2022-08-28T12:33:32.725Z,56.45
2022-08-28T12:34:32.728Z,55.24
2022-08-28T12:35:32.704Z,55.70
2022-08-28T12:36:32.698Z,55.58
2022-08-28T12:37:39.485Z,55.85
2022-08-28T12:38:33.690Z,54.43
2022-08-28T12:39:32.651Z,56.64
2022-08-28T12:40:32.745Z,55.46
2022-08-28T12:41:32.634Z,54.60
2022-08-28T12:42:32.617Z,56.21
2022-08-28T12:43:32.599Z,55.22
2022-08-28T12:44:32.594Z,55.98
2022-08-28T12:45:32.587Z,53.99
2022-08-28T12:46:32.598Z,53.81
2022-08-28T12:47:32.556Z,54.87
2022-08-28T12:48:32.544Z,53.96
2022-08-28T12:49:32.528Z,53.14
2022-08-28T12:50:32.515Z,51.86
2022-08-28T12:51:32.504Z,53.78
2022-08-28T12:52:32.492Z,53.36